Time;durP1;ratioP1;P1;durP2;ratioP2;P2;SDS_P1;SDS_P2;PMS_P1;PMS_P2;Temp;Humidity;BMP_temperature;BMP_pressure;BME280_temperature;BME280_humidity;BME280_pressure;Samples;Min_cycle;Max_cycle;Signal;HPM_P1;HPM_P2
2021/06/09 00:01:08;;;;;;;34.63;23.53;;;17.70;1.00;;;-143.32;100.00;53147.94;6188081;23;20397;-90
2021/06/09 00:03:35;;;;;;;33.17;23.07;;;17.80;1.00;;;-143.32;100.00;53119.66;6187991;23;20390;-92
2021/06/09 00:06:02;;;;;;;28.60;23.20;;;17.80;1.00;;;-143.32;100.00;53151.97;6186974;23;20420;-92
2021/06/09 00:08:30;;;;;;;31.10;24.77;;;17.70;1.00;;;-143.32;100.00;53162.09;6187320;23;20406;-90
2021/06/09 00:10:57;;;;;;;30.53;24.20;;;17.60;1.00;;;-143.32;100.00;53182.28;6187315;23;20460;-92
2021/06/09 00:13:30;;;;;;;29.50;22.73;;;17.60;1.00;;;-143.32;100.00;53162.09;6187328;23;20406;-91
2021/06/09 00:15:59;;;;;;;38.00;22.40;;;17.60;1.00;;;-143.32;100.00;53156.03;6187822;23;20374;-91
2021/06/09 00:18:26;;;;;;;30.00;23.10;;;17.60;1.00;;;-143.32;100.00;53160.06;6187189;23;20453;-91
2021/06/09 00:20:53;;;;;;;28.77;22.63;;;17.60;1.00;;;-143.32;100.00;53166.13;6187398;23;20406;-92
2021/06/09 00:23:25;;;;;;;28.93;21.17;;;17.60;1.00;;;-143.32;100.00;53139.88;6187075;23;20769;-92
2021/06/09 00:25:56;;;;;;;30.30;22.87;;;17.60;1.00;;;-143.32;100.00;53143.91;6187155;23;20402;-90
2021/06/09 00:28:23;;;;;;;28.87;23.47;;;17.70;1.00;;;-143.32;100.00;53145.91;6187697;23;20750;-91
2021/06/09 00:30:51;;;;;;;28.10;23.10;;;17.70;1.00;;;-143.32;100.00;53143.91;6186659;23;20406;-91
2021/06/09 00:33:17;;;;;;;34.33;24.00;;;17.70;1.00;;;-143.32;100.00;53137.84;6186750;23;20718;-93
2021/06/09 00:35:44;;;;;;;35.17;24.27;;;17.70;1.00;;;-143.32;100.00;53151.97;6187109;23;20413;-92
2021/06/09 00:38:11;;;;;;;28.80;22.70;;;17.70;1.00;;;-143.32;100.00;53154.00;6186385;23;20446;-91
2021/06/09 00:40:38;;;;;;;33.23;24.20;;;17.70;1.00;;;-143.32;100.00;53137.84;6187911;23;20406;-92
2021/06/09 00:43:11;;;;;;;28.00;23.27;;;17.70;1.00;;;-143.32;100.00;53123.72;6186636;23;20406;-92
2021/06/09 00:45:45;;;;;;;32.80;23.60;;;17.60;1.00;;;-143.32;100.00;53121.69;6187064;23;20394;-91
2021/06/09 00:48:11;;;;;;;32.53;24.77;;;17.60;1.00;;;-143.32;100.00;53147.94;6186676;23;20378;-92
2021/06/09 00:50:39;;;;;;;32.47;24.50;;;17.50;1.00;;;-143.32;100.00;53121.69;6186436;23;20406;-91
2021/06/09 00:55:51;;;;;;;33.37;25.07;;;17.40;32.90;;;-143.32;100.00;53133.81;6187023;23;20386;-91
2021/06/09 00:58:19;;;;;;;37.80;25.03;;;17.40;91.50;;;-143.32;100.00;53135.81;6186636;23;20765;-91
2021/06/09 01:00:46;;;;;;;28.83;24.67;;;17.40;99.90;;;-143.32;100.00;53164.09;6187395;23;20413;-89
2021/06/09 01:03:13;;;;;;;35.90;25.60;;;17.30;99.90;;;-143.32;100.00;53149.97;6187419;23;20869;-91
2021/06/09 01:05:40;;;;;;;39.20;27.13;;;17.20;99.90;;;-143.32;100.00;53158.03;6186746;23;20406;-90
2021/06/09 01:08:08;;;;;;;34.93;25.80;;;17.20;99.90;;;-143.32;100.00;53160.06;6186732;23;20460;-89
2021/06/09 01:10:35;;;;;;;39.10;27.27;;;17.10;99.90;;;-143.32;100.00;53107.56;6186365;23;20410;-91
2021/06/09 01:13:03;;;;;;;37.10;27.27;;;17.00;99.90;;;-143.32;100.00;53154.00;6186740;23;20912;-91
2021/06/09 01:15:33;;;;;;;37.73;27.00;;;17.00;99.90;;;-143.32;100.00;53139.88;6186608;23;20449;-90
2021/06/09 01:18:00;;;;;;;37.53;27.07;;;17.00;99.90;;;-143.32;100.00;53119.66;6187698;23;20406;-88
2021/06/09 01:20:28;;;;;;;38.93;28.10;;;16.90;99.90;;;-143.32;100.00;53133.81;6186248;23;20409;-90
2021/06/09 01:22:56;;;;;;;42.03;27.60;;;16.90;99.90;;;-143.32;100.00;53127.75;6186540;23;20398;-90
2021/06/09 01:25:24;;;;;;;48.10;29.07;;;16.80;99.90;;;-143.32;100.00;53113.63;6186528;23;20410;-90
2021/06/09 01:27:52;;;;;;;39.63;28.63;;;16.80;99.90;;;-143.32;100.00;53083.31;6187571;23;20754;-90
2021/06/09 01:30:21;;;;;;;42.33;28.07;;;16.70;99.90;;;-143.32;100.00;53105.53;6186187;23;20414;-90
2021/06/09 01:32:50;;;;;;;38.23;27.90;;;16.70;99.90;;;-143.32;100.00;53093.41;6186392;23;20779;-88
2021/06/09 01:35:18;;;;;;;38.43;28.87;;;16.70;99.90;;;-143.32;100.00;53061.09;6187007;23;20417;-90
2021/06/09 01:37:44;;;;;;;39.33;29.30;;;16.70;99.90;;;-143.32;100.00;53065.13;6186516;23;20726;-92
2021/06/09 01:40:16;;;;;;;41.60;31.30;;;16.70;99.90;;;-143.32;100.00;53057.06;6186406;23;20493;-91
2021/06/09 01:42:43;;;;;;;45.80;29.57;;;16.70;99.90;;;-143.32;100.00;53042.94;6186237;23;20389;-89
2021/06/09 01:45:15;;;;;;;44.80;30.93;;;16.70;99.90;;;-143.32;100.00;53030.81;6186478;23;20707;-90
2021/06/09 01:47:42;;;;;;;42.53;30.87;;;16.70;99.90;;;-143.32;100.00;53055.03;6186518;23;20866;-90
2021/06/09 01:50:12;;;;;;;42.60;30.33;;;16.60;99.90;;;-143.32;100.00;53030.81;6186434;23;20406;-92
2021/06/09 01:52:39;;;;;;;40.47;30.80;;;16.60;99.90;;;-143.32;100.00;53048.97;6186381;23;20405;-89
2021/06/09 01:55:11;;;;;;;43.57;31.87;;;16.50;99.90;;;-143.32;100.00;53036.88;6187356;23;20405;-90
2021/06/09 01:57:40;;;;;;;43.83;32.80;;;16.50;99.90;;;-143.32;100.00;53036.88;6186038;23;20433;-89
2021/06/09 02:00:11;;;;;;;45.10;32.73;;;16.40;99.90;;;-143.32;100.00;53046.97;6185864;23;20472;-90
2021/06/09 02:02:38;;;;;;;45.03;32.40;;;16.40;99.90;;;-143.32;100.00;52976.28;6186026;23;20398;-89
2021/06/09 02:05:06;;;;;;;51.40;33.90;;;16.40;99.90;;;-143.32;100.00;52990.41;6186237;23;20410;-89
2021/06/09 02:07:36;;;;;;;54.30;35.10;;;16.40;99.90;;;-143.32;100.00;52978.31;6186262;23;20460;-91
2021/06/09 02:10:09;;;;;;;45.00;34.50;;;16.40;99.90;;;-143.32;100.00;52913.69;6187350;23;20390;-89
2021/06/09 02:12:36;;;;;;;51.00;34.40;;;16.40;99.90;;;-143.32;100.00;52891.47;6186339;23;20386;-89
2021/06/09 02:15:09;;;;;;;54.90;38.60;;;16.40;99.90;;;-143.32;100.00;52859.16;6185895;23;20950;-90
2021/06/09 02:17:36;;;;;;;53.53;36.30;;;16.30;99.90;;;-143.32;100.00;52855.13;6185958;23;20402;-89
2021/06/09 02:20:05;;;;;;;50.37;36.30;;;16.30;99.90;;;-143.32;100.00;52812.72;6186126;23;20442;-89
2021/06/09 02:22:32;;;;;;;53.23;35.07;;;16.30;99.90;;;-143.32;100.00;52818.78;6186294;23;20398;-90
2021/06/09 02:24:58;;;;;;;50.00;35.93;;;16.30;99.90;;;-143.32;100.00;52792.53;6186253;23;20737;-90
2021/06/09 02:27:25;;;;;;;55.20;36.70;;;16.30;99.90;;;-143.32;100.00;52715.78;6185918;23;20406;-89
2021/06/09 02:29:52;;;;;;;54.57;38.10;;;16.30;99.90;;;-143.32;100.00;52733.97;6187216;23;20409;-89
2021/06/09 02:32:20;;;;;;;52.43;37.27;;;16.20;99.90;;;-143.32;100.00;52707.72;6186262;23;20413;-90
2021/06/09 02:34:47;;;;;;;48.37;37.37;;;16.20;99.90;;;-143.32;100.00;52691.56;6186209;23;20410;-90
2021/06/09 02:37:14;;;;;;;54.40;37.90;;;16.20;99.90;;;-143.32;100.00;52657.22;6185721;23;20410;-90
2021/06/09 02:39:41;;;;;;;53.23;37.73;;;16.20;99.90;;;-143.32;100.00;52626.94;6186253;23;20770;-91
2021/06/09 02:42:09;;;;;;;57.63;38.40;;;16.20;99.90;;;-143.32;100.00;52655.19;6186091;23;20703;-90
2021/06/09 02:44:35;;;;;;;62.30;40.43;;;16.20;99.90;;;-143.32;100.00;52608.75;6186155;23;20418;-89
2021/06/09 02:47:03;;;;;;;59.40;40.27;;;16.10;99.90;;;-143.32;100.00;52639.06;6186146;23;20413;-90
2021/06/09 02:49:36;;;;;;;59.13;41.20;;;16.10;99.90;;;-143.32;100.00;52600.69;6185705;23;20417;-89
2021/06/09 02:52:12;;;;;;;56.60;40.63;;;16.10;99.90;;;-143.32;100.00;52576.44;6186112;23;20401;-91
2021/06/09 02:54:49;;;;;;;56.47;41.80;;;16.10;99.90;;;-143.32;100.00;52538.09;6186403;23;20425;-90
2021/06/09 02:57:33;;;;;;;61.73;41.63;;;16.10;99.90;;;-143.32;100.00;52536.06;6188149;23;20694;-90
2021/06/09 03:00:08;;;;;;;68.47;41.97;;;16.10;99.90;;;-143.32;100.00;52519.91;6187406;23;20445;-90
2021/06/09 03:02:46;;;;;;;62.17;41.43;;;16.10;99.90;;;-143.32;100.00;52499.72;6187731;23;20370;-91
2021/06/09 03:05:23;;;;;;;63.83;41.20;;;16.10;99.90;;;-143.32;100.00;52487.59;6187562;23;20390;-91
2021/06/09 03:08:03;;;;;;;63.07;42.40;;;16.00;99.90;;;-143.32;100.00;52479.53;6187614;23;20478;-90
2021/06/09 03:10:44;;;;;;;60.93;41.10;;;16.00;99.90;;;-143.32;100.00;52530.00;6187946;23;20441;-89
2021/06/09 03:13:26;;;;;;;61.13;40.87;;;16.00;99.90;;;-143.32;100.00;52495.69;6187463;23;20873;-91
2021/06/09 03:15:59;;;;;;;72.17;42.60;;;16.00;99.90;;;-143.32;100.00;52493.66;6187457;23;20394;-90
2021/06/09 03:18:34;;;;;;;66.33;40.97;;;15.90;99.90;;;-143.32;100.00;52489.63;6187234;23;20496;-90
2021/06/09 03:21:07;;;;;;;69.07;40.70;;;15.90;99.90;;;-143.32;100.00;52501.75;6187427;23;20420;-92
2021/06/09 03:23:46;;;;;;;62.40;39.90;;;15.80;99.90;;;-143.32;100.00;52525.97;6188021;23;20402;-90
2021/06/09 03:26:18;;;;;;;91.33;40.57;;;15.80;99.90;;;-143.32;100.00;52521.94;6188755;23;20394;-90
2021/06/09 03:28:52;;;;;;;65.53;40.17;;;15.80;99.90;;;-143.32;100.00;52507.81;6187566;23;20386;-90
2021/06/09 03:31:24;;;;;;;60.37;39.10;;;15.80;99.90;;;-143.32;100.00;52525.97;6187869;23;20392;-89
2021/06/09 03:33:53;;;;;;;64.33;40.20;;;15.80;99.90;;;-143.32;100.00;52497.69;6187714;23;20397;-90
2021/06/09 03:36:25;;;;;;;62.67;39.83;;;15.80;99.90;;;-143.32;100.00;52534.06;6187586;23;20413;-90
2021/06/09 03:38:58;;;;;;;60.73;38.27;;;15.80;99.90;;;-143.32;100.00;52540.09;6188238;23;20433;-90
2021/06/09 03:41:33;;;;;;;53.67;37.13;;;15.80;99.90;;;-143.32;100.00;52590.59;6188049;23;20374;-90
2021/06/09 03:44:00;;;;;;;58.87;37.53;;;15.80;99.90;;;-143.32;100.00;52612.81;6187605;23;20748;-90
2021/06/09 03:46:28;;;;;;;61.27;38.53;;;15.80;99.90;;;-143.32;100.00;52598.66;6187653;23;20916;-90
2021/06/09 03:48:58;;;;;;;53.60;37.37;;;15.80;99.90;;;-143.32;100.00;52576.44;6188544;23;20437;-89
2021/06/09 03:51:28;;;;;;;58.97;38.03;;;15.80;99.90;;;-143.32;100.00;52624.91;6187066;23;20422;-91
2021/06/09 03:53:57;;;;;;;55.57;37.47;;;15.80;99.90;;;-143.32;100.00;52600.69;6187255;23;20937;-90
2021/06/09 03:56:26;;;;;;;58.83;38.37;;;15.80;99.90;;;-143.32;100.00;52610.78;6186953;23;20410;-89
2021/06/09 03:58:55;;;;;;;49.07;35.60;;;15.80;99.90;;;-143.32;100.00;52616.84;6186912;23;20454;-92
2021/06/09 04:01:23;;;;;;;53.30;38.13;;;15.90;99.90;;;-143.32;100.00;52620.88;6186846;23;20409;-91
2021/06/09 04:03:50;;;;;;;57.17;39.60;;;15.80;99.90;;;-143.32;100.00;52624.91;6187351;23;20440;-89
2021/06/09 04:06:19;;;;;;;58.80;38.20;;;15.90;99.90;;;-143.32;100.00;52614.81;6186738;23;20412;-89
2021/06/09 04:08:49;;;;;;;60.07;39.20;;;15.90;99.90;;;-143.32;100.00;52624.91;6186785;23;20398;-90
2021/06/09 04:11:19;;;;;;;62.40;37.00;;;15.80;99.90;;;-143.32;100.00;52626.94;6186847;23;20413;-90
2021/06/09 04:13:50;;;;;;;57.57;40.20;;;15.80;99.90;;;-143.32;100.00;52649.16;6187904;23;20698;-90
2021/06/09 04:16:18;;;;;;;52.23;37.27;;;15.90;99.90;;;-143.32;100.00;52659.25;6187055;23;20436;-89
2021/06/09 04:18:48;;;;;;;63.57;39.90;;;15.80;99.90;;;-143.32;100.00;52657.22;6186749;23;20457;-91
2021/06/09 04:21:15;;;;;;;65.90;38.93;;;15.80;99.90;;;-143.32;100.00;52689.53;6186794;23;20904;-90
2021/06/09 04:23:42;;;;;;;61.07;41.00;;;15.80;99.90;;;-143.32;100.00;52681.47;6187080;23;20497;-92
2021/06/09 04:26:16;;;;;;;57.10;39.77;;;15.80;99.90;;;-143.32;100.00;52667.31;6187273;23;20406;-91
2021/06/09 04:28:45;;;;;;;56.10;39.60;;;15.80;99.90;;;-143.32;100.00;52685.50;6187867;23;20386;-91
2021/06/09 04:31:14;;;;;;;62.40;40.17;;;15.80;99.90;;;-143.32;100.00;52691.56;6187600;23;20406;-92
2021/06/09 04:33:44;;;;;;;64.27;39.50;;;15.80;99.90;;;-143.32;100.00;52677.41;6186987;23;20707;-90
2021/06/09 04:36:12;;;;;;;65.10;42.40;;;15.90;99.90;;;-143.32;100.00;52665.31;6186779;23;20955;-90
2021/06/09 04:38:39;;;;;;;53.87;39.13;;;15.90;99.90;;;-143.32;100.00;52665.31;6186527;23;20446;-90
2021/06/09 04:41:06;;;;;;;71.87;39.90;;;16.00;99.90;;;-143.32;100.00;52711.75;6186651;23;20406;-89
2021/06/09 04:43:35;;;;;;;61.83;38.47;;;16.10;99.90;;;-143.32;100.00;52667.31;6187768;23;20406;-90
2021/06/09 04:46:02;;;;;;;71.03;40.83;;;16.20;99.90;;;-143.32;100.00;52679.44;6186880;23;20410;-90
2021/06/09 04:48:29;;;;;;;69.83;42.33;;;16.20;99.90;;;-143.32;100.00;52677.41;6186832;23;20406;-90
2021/06/09 04:50:56;;;;;;;64.57;41.93;;;16.30;99.90;;;-143.32;100.00;52671.34;6186919;23;20410;-91
2021/06/09 04:53:22;;;;;;;72.07;41.83;;;16.40;99.90;;;-143.32;100.00;52697.59;6186967;23;20773;-90
2021/06/09 04:55:52;;;;;;;62.13;42.60;;;16.50;99.90;;;-143.32;100.00;52673.38;6186643;23;20425;-90
2021/06/09 04:58:22;;;;;;;65.00;42.47;;;16.50;99.90;;;-143.32;100.00;52681.47;6186623;23;20405;-91
2021/06/09 05:00:53;;;;;;;73.00;41.20;;;16.60;99.90;;;-143.32;100.00;52653.19;6187388;23;20410;-88
2021/06/09 05:03:20;;;;;;;73.10;41.17;;;16.70;99.90;;;-143.32;100.00;52624.91;6188403;23;20421;-91
2021/06/09 05:05:50;;;;;;;59.13;40.30;;;16.90;99.90;;;-143.32;100.00;52681.47;6186388;23;20406;-93
2021/06/09 05:08:17;;;;;;;62.50;41.73;;;17.00;95.30;;;-143.32;100.00;52675.41;6187260;23;20414;-91
2021/06/09 05:10:44;;;;;;;70.23;41.10;;;17.10;1.00;;;-143.32;100.00;52673.38;6186869;23;20421;-91
2021/06/09 05:17:02;;;;;;;69.33;41.37;;;17.30;1.00;;;-143.32;100.00;52635.00;6188770;23;20445;-92
2021/06/09 05:19:32;;;;;;;58.20;40.53;;;17.40;99.90;;;-143.32;100.00;52602.69;6187724;23;20433;-91
2021/06/09 05:22:05;;;;;;;56.50;37.07;;;17.60;1.00;;;-143.32;100.00;52616.84;6187004;23;20426;-91
2021/06/09 05:24:35;;;;;;;52.13;37.90;;;17.70;1.00;;;-143.32;100.00;52562.31;6187494;23;20389;-91
2021/06/09 05:27:08;;;;;;;68.33;43.50;;;18.10;93.90;;;-143.32;100.00;52600.69;6186677;23;20433;-93
2021/06/09 05:33:17;;;;;;;69.00;43.93;;;18.30;1.00;;;-143.32;100.00;52630.97;6186988;23;20405;-91
2021/06/09 05:35:44;;;;;;;61.33;39.40;;;18.40;99.90;;;-143.32;100.00;52568.38;6192456;23;20412;-92
2021/06/09 05:38:11;;;;;;;65.47;40.30;;;18.50;99.90;;;-143.32;100.00;52556.25;6189674;23;20410;-91
2021/06/09 05:40:38;;;;;;;64.07;43.43;;;18.70;99.90;;;-143.32;100.00;52548.19;6186577;23;20457;-91
2021/06/09 05:43:29;;;;;;;61.73;44.10;;;18.90;99.90;;;-143.32;100.00;52572.41;6195013;23;20734;-92
2021/06/09 05:45:57;;;;;;;59.03;44.50;;;19.00;99.90;;;-143.32;100.00;52574.44;6182469;23;20472;-91
2021/06/09 05:48:26;;;;;;;75.40;46.10;;;19.00;99.90;;;-143.32;100.00;52572.41;6187055;23;20410;-92
2021/06/09 05:50:56;;;;;;;66.53;44.70;;;19.20;99.90;;;-143.32;99.55;52546.16;6189717;23;20410;-92
2021/06/09 05:57:06;;;;;;;66.73;41.23;;;19.70;56.40;;;-143.32;96.77;52457.31;6191159;23;20374;-91
2021/06/09 05:59:34;;;;;;;68.83;44.50;;;20.30;1.00;;;-143.32;95.10;52433.09;6187145;23;20524;-93
2021/06/09 06:02:03;;;;;;;60.10;42.60;;;20.70;1.00;;;-143.32;92.68;52465.41;6188759;23;20402;-90
2021/06/09 06:04:33;;;;;;;70.40;46.60;;;21.10;99.90;;;-143.32;92.28;52435.09;6186995;23;20757;-93
2021/06/09 06:07:01;;;;;;;54.97;38.70;;;21.30;99.90;;;-143.32;91.24;52356.38;6188141;23;20417;-88
2021/06/09 06:09:29;;;;;;;71.67;44.30;;;21.70;99.90;;;-143.32;87.39;52354.34;6186611;23;20418;-91
2021/06/09 06:11:56;;;;;;;53.47;34.97;;;22.30;1.00;;;-143.32;87.33;52328.09;6190967;23;20413;-91
2021/06/09 06:14:28;;;;;;;51.33;35.93;;;22.50;1.00;;;-143.32;85.38;52297.81;6192645;23;20481;-91
2021/06/09 06:16:56;;;;;;;49.87;35.97;;;22.90;1.00;;;-143.32;84.04;52283.69;6187417;23;20404;-93
2021/06/09 06:19:35;;;;;;;48.63;35.03;;;23.20;99.90;;;-143.32;82.20;52299.81;6189772;23;20468;-93
2021/06/09 06:22:07;;;;;;;53.43;38.13;;;23.50;99.90;;;-143.32;82.57;52354.34;6186972;23;20386;-93
2021/06/09 06:24:43;;;;;;;50.30;36.00;;;23.40;99.90;;;-143.32;83.42;52388.66;6186096;23;20394;-92
2021/06/09 06:30:50;;;;;;;52.40;36.87;;;23.10;99.90;;;-143.32;84.20;52374.53;6189718;23;20457;-91
2021/06/09 06:33:17;;;;;;;55.70;36.57;;;23.10;99.90;;;-143.32;84.24;52400.78;6190904;23;20425;-90
2021/06/09 06:35:47;;;;;;;51.33;34.70;;;23.10;99.90;;;-143.32;84.67;52326.06;6187970;23;20896;-91
2021/06/09 06:38:15;;;;;;;46.47;33.10;;;23.10;99.90;;;-143.32;83.01;52313.97;6187912;23;20402;-91
2021/06/09 06:40:42;;;;;;;43.73;31.67;;;23.50;99.90;;;-143.32;81.54;52279.63;6187466;23;20491;-92
2021/06/09 06:43:10;;;;;;;37.40;28.37;;;23.80;99.90;;;-143.32;81.07;52217.06;6188051;23;20550;-92
2021/06/09 06:45:38;;;;;;;44.43;33.33;;;24.10;99.90;;;-143.32;79.84;52225.13;6188283;23;20952;-89
2021/06/09 06:48:07;;;;;;;44.70;32.57;;;24.30;17.20;;;-143.32;80.28;52259.44;6187784;23;20428;-90
2021/06/09 06:54:18;;;;;;;41.43;29.03;;;24.00;45.80;;;-143.32;79.48;52354.34;6188749;23;20372;-91
2021/06/09 06:56:58;;;;;;;40.80;25.30;;;24.00;1.00;;;-143.32;78.81;52372.50;6187139;23;20412;-88
2021/06/09 06:59:27;;;;;;;38.70;26.70;;;23.90;1.00;;;-143.32;79.21;52429.06;6187531;23;21001;-91
2021/06/09 07:01:56;;;;;;;41.90;30.13;;;23.70;1.00;;;-143.32;80.08;52338.19;6187315;23;20868;-90
2021/06/09 07:04:23;;;;;;;35.60;23.83;;;23.80;1.00;;;-143.32;78.75;52437.13;6187159;23;20436;-90
2021/06/09 07:06:51;;;;;;;34.27;24.80;;;23.70;1.00;;;-143.32;79.31;52435.09;6187477;23;20468;-90
2021/06/09 07:09:21;;;;;;;31.97;24.67;;;23.70;1.00;;;-143.32;80.70;52376.56;6186981;23;20888;-89
2021/06/09 07:11:51;;;;;;;34.30;26.70;;;23.50;80.70;;;-143.32;80.49;52425.00;6199048;23;20397;-93
2021/06/09 07:14:21;;;;;;;35.70;26.67;;;23.50;77.20;;;-143.32;80.20;52400.78;6199013;23;20390;-92
2021/06/09 07:16:50;;;;;;;40.27;28.50;;;23.70;89.60;;;-143.32;80.84;52370.50;6198308;23;20417;-91
2021/06/09 07:19:20;;;;;;;47.60;27.80;;;23.70;99.90;;;-143.32;80.89;52320.03;6194566;23;20448;-92
2021/06/09 07:21:47;;;;;;;29.77;23.30;;;23.80;99.90;;;-143.32;81.46;52257.44;6196308;23;20409;-92
2021/06/09 07:24:16;;;;;;;36.43;26.70;;;23.90;99.90;;;-143.32;79.64;52287.72;6202125;23;20436;-91
2021/06/09 07:26:48;;;;;;;35.33;24.90;;;24.30;99.90;;;-143.32;78.59;52281.66;6201513;23;20474;-91
2021/06/09 07:29:20;;;;;;;31.70;22.27;;;24.40;1.00;;;-143.32;75.94;52229.16;6173876;23;20378;-92
2021/06/09 07:31:47;;;;;;;34.43;22.93;;;24.70;1.00;;;-143.32;76.92;52237.25;6196999;23;20412;-93
2021/06/09 07:34:16;;;;;;;30.30;22.80;;;24.80;1.00;;;-143.32;74.96;52342.22;6195132;23;20398;-91
2021/06/09 07:36:47;;;;;;;25.43;21.37;;;24.70;99.90;;;-143.32;75.30;52332.13;6191001;23;20822;-92
2021/06/09 07:39:24;;;;;;;29.27;21.70;;;24.50;99.90;;;-143.32;74.68;52297.81;6189630;23;20429;-93
2021/06/09 07:41:55;;;;;;;30.83;24.00;;;24.70;99.90;;;-143.32;75.34;52330.13;6194751;23;20399;-89
2021/06/09 07:44:24;;;;;;;29.73;21.40;;;24.60;99.90;;;-143.32;75.15;52320.03;6187137;23;20436;-90
2021/06/09 07:46:54;;;;;;;24.63;20.20;;;24.60;1.00;;;-143.32;75.17;52289.72;6187495;23;20820;-90
2021/06/09 07:49:23;;;;;;;24.97;19.73;;;24.70;1.00;;;-143.32;73.54;52368.47;6187073;23;20393;-89
2021/06/09 07:51:54;;;;;;;20.37;17.53;;;24.60;99.90;;;-143.32;74.01;52311.94;6186810;23;20880;-90
2021/06/09 07:58:05;;;;;;;21.40;16.80;;;24.80;99.90;;;-143.32;69.13;52261.47;6187115;23;20512;-90
2021/06/09 08:01:12;;;;;;;18.20;14.87;;;25.40;99.90;;;-143.32;68.50;52217.06;6189335;23;20500;-91
2021/06/09 08:05:00;;;;;;;;;;;;;;;;;;;;;
2021/06/09 08:07:51;;;;;;;22.60;17.40;;;25.60;97.60;;;-143.32;68.43;52279.63;6191124;23;20392;-91
2021/06/09 08:13:52;;;;;;;31.07;19.10;;;25.80;99.90;;;-143.32;68.22;52271.56;6043735;23;20489;-90
2021/06/09 08:20:33;;;;;;;17.67;14.70;;;26.00;69.90;;;-143.32;63.61;52326.06;6068253;23;20497;-91
2021/06/09 08:23:24;;;;;;;19.97;14.77;;;26.30;1.00;;;-143.32;62.67;52358.38;6075824;23;20803;-92
2021/06/09 08:25:53;;;;;;;15.67;13.10;;;26.30;1.00;;;-143.32;60.83;52412.91;6186906;23;20468;-92
2021/06/09 08:39:37;;;;;;;25.57;18.43;;;27.40;1.00;;;-143.32;63.88;52372.50;6010561;23;20391;-91
2021/06/09 08:42:07;;;;;;;27.33;19.23;;;26.80;1.00;;;-143.32;66.86;52461.34;6127422;23;20473;-93
2021/06/09 08:53:03;;;;;;;;;;;;;;;;;;;;;
2021/06/09 08:59:12;;;;;;;21.77;16.03;;;27.50;1.00;;;-143.32;57.36;52277.63;6188617;23;20440;-90
2021/06/09 09:01:39;;;;;;;21.67;15.43;;;27.60;1.00;;;-143.32;56.50;52330.13;6186969;23;20424;-92
2021/06/09 09:04:10;;;;;;;20.70;15.10;;;27.60;1.00;;;-143.32;58.49;52463.38;6186586;23;20432;-91
2021/06/09 09:06:37;;;;;;;27.30;14.33;;;27.10;1.00;;;-143.32;62.53;52503.75;6186360;23;20421;-93
2021/06/09 09:09:05;;;;;;;38.60;15.53;;;26.40;1.00;;;-143.32;62.33;52570.41;6186159;23;20505;-91
2021/06/09 09:11:31;;;;;;;29.67;16.77;;;25.90;1.00;;;-143.32;65.16;52592.59;6186572;23;20421;-91
2021/06/09 09:13:59;;;;;;;21.50;15.77;;;25.40;1.00;;;-143.32;64.14;52703.66;6186840;23;20389;-93
2021/06/09 09:16:46;;;;;;;17.20;12.80;;;25.20;1.00;;;-143.32;63.91;52639.06;6186827;23;20397;-91
2021/06/09 09:22:58;;;;;;;18.57;12.70;;;25.80;1.00;;;-143.32;58.03;52495.69;6067106;23;20429;-93
2021/06/09 09:25:31;;;;;;;16.20;12.97;;;26.40;1.00;;;-143.32;53.68;52445.22;6174885;23;20472;-91
2021/06/09 09:28:04;;;;;;;15.60;13.63;;;27.10;1.00;;;-143.32;51.41;52483.56;6186851;23;20390;-92
2021/06/09 09:30:34;;;;;;;17.87;13.63;;;27.50;1.00;;;-143.32;52.82;52441.16;6187204;23;20503;-92
2021/06/09 09:33:06;;;;;;;17.27;13.20;;;27.40;1.00;;;-143.32;51.94;52402.81;6186190;23;20413;-91
2021/06/09 09:35:43;;;;;;;14.53;11.60;;;27.70;1.00;;;-143.32;53.44;52398.75;6188131;23;20401;-90
2021/06/09 09:38:16;;;;;;;13.47;10.37;;;27.80;1.00;;;-143.32;50.53;52443.19;6185504;23;20480;-91
2021/06/09 09:52:01;;;;;;;17.23;13.60;;;26.10;1.00;;;-143.32;56.44;52679.44;6186623;23;20389;-90
2021/06/09 10:01:08;;;;;;;23.97;15.17;;;26.80;1.00;;;-143.32;58.83;52677.41;6083131;23;20403;-90
2021/06/09 10:03:53;;;;;;;20.70;14.80;;;26.50;1.00;;;-143.32;59.98;52691.56;6185983;23;20389;-91
2021/06/09 10:06:27;;;;;;;19.40;15.67;;;26.00;1.00;;;-143.32;62.25;52713.75;6186846;23;20385;-89
2021/06/09 10:08:58;;;;;;;16.83;13.90;;;25.70;1.00;;;-143.32;63.48;52766.25;6186203;23;20398;-88
2021/06/09 10:11:27;;;;;;;19.13;14.67;;;25.30;1.00;;;-143.32;64.85;52748.09;6185842;23;20388;-86
2021/06/09 10:13:56;;;;;;;18.90;16.67;;;25.10;1.00;;;-143.32;64.13;52818.78;6186170;23;20416;-89
2021/06/09 10:16:32;;;;;;;23.83;20.03;;;25.00;1.00;;;-143.32;62.06;52790.50;6185831;23;20468;-92
2021/06/09 10:19:08;;;;;;;24.50;17.67;;;25.10;1.00;;;-143.32;63.33;52754.16;6185812;23;20393;-91
2021/06/09 10:21:44;;;;;;;22.83;17.87;;;25.20;1.00;;;-143.32;59.73;52778.38;6185901;23;20918;-90
2021/06/09 10:24:15;;;;;;;19.60;16.77;;;25.40;1.00;;;-143.32;61.88;52740.00;6186033;23;20745;-90
2021/06/09 10:26:51;;;;;;;16.97;15.17;;;25.50;1.00;;;-143.32;60.71;52703.66;6186322;23;20437;-88
2021/06/09 10:29:20;;;;;;;32.93;15.07;;;25.60;1.00;;;-143.32;58.54;52679.44;6186128;23;20429;-91
2021/06/09 10:31:50;;;;;;;19.10;15.17;;;26.00;1.00;;;-143.32;56.97;52643.09;6185993;23;20397;-88
2021/06/09 10:34:17;;;;;;;18.03;13.80;;;26.50;1.00;;;-143.32;55.05;52628.94;6186691;23;20414;-88
2021/06/09 10:36:48;;;;;;;19.50;14.83;;;26.70;1.00;;;-143.32;56.03;52602.69;6185834;23;20423;-89
2021/06/09 10:39:27;;;;;;;18.40;14.43;;;26.90;1.00;;;-143.32;54.14;52673.38;6186110;23;20397;-90
2021/06/09 10:41:57;;;;;;;20.73;13.93;;;26.80;1.00;;;-143.32;53.67;52697.59;6186033;23;20385;-92
2021/06/09 10:44:28;;;;;;;17.10;13.90;;;26.70;1.00;;;-143.32;55.87;52746.06;6185616;23;20396;-89
2021/06/09 10:46:59;;;;;;;18.03;13.20;;;26.40;1.00;;;-143.32;55.01;52794.53;6186055;23;20817;-89
2021/06/09 10:49:26;;;;;;;13.87;12.40;;;26.10;1.00;;;-143.32;54.98;52802.63;6185255;23;20429;-89
2021/06/09 10:51:55;;;;;;;14.93;12.80;;;26.00;99.90;;;-143.32;54.91;52772.31;6185118;23;20421;-92
2021/06/09 10:54:24;;;;;;;17.30;13.33;;;26.00;99.90;;;-143.32;54.45;52764.25;6185611;23;20413;-90
2021/06/09 10:56:54;;;;;;;17.93;12.90;;;26.10;99.90;;;-143.32;51.79;52816.75;6185151;23;20424;-91
2021/06/09 10:59:23;;;;;;;14.90;10.83;;;26.30;99.90;;;-143.32;53.17;52715.78;6185801;23;20402;-90
2021/06/09 11:01:56;;;;;;;11.73;10.03;;;26.50;99.90;;;-143.32;50.87;52731.94;6185296;23;20455;-89
2021/06/09 11:04:26;;;;;;;10.77;9.30;;;26.60;99.90;;;-143.32;48.32;52768.28;6185623;23;20848;-89
2021/06/09 11:06:55;;;;;;;12.37;10.13;;;26.80;99.90;;;-143.32;46.95;52832.91;6185436;23;20417;-87
2021/06/09 11:09:25;;;;;;;10.47;9.40;;;26.80;99.90;;;-143.32;47.31;52824.81;6185663;23;20445;-89
2021/06/09 11:12:23;;;;;;;12.67;9.50;;;26.80;99.90;;;-143.32;46.47;52828.88;6185429;23;20440;-89
2021/06/09 11:14:54;;;;;;;10.60;8.50;;;26.90;99.90;;;-143.32;46.82;52768.28;6065781;23;20703;-89
2021/06/09 11:17:40;;;;;;;14.93;11.40;;;27.00;99.90;;;-143.32;46.49;52804.63;6164185;23;20420;-90
2021/06/09 11:20:19;;;;;;;14.60;11.03;;;27.10;99.90;;;-143.32;46.93;52814.72;6187489;23;20381;-90
2021/06/09 11:22:48;;;;;;;18.13;10.53;;;27.00;99.90;;;-143.32;49.76;52742.03;6187210;23;20401;-90
2021/06/09 11:25:21;;;;;;;15.70;10.57;;;27.00;99.90;;;-143.32;52.01;52701.66;6187168;23;20968;-90
2021/06/09 11:28:01;;;;;;;14.50;11.40;;;27.10;99.90;;;-143.32;51.24;52740.00;6187265;23;20425;-89